Time;durP1;ratioP1;P1;durP2;ratioP2;P2;SDS_P1;SDS_P2;PMS_P1;PMS_P2;Temp;Humidity;BMP_temperature;BMP_pressure;BME280_temperature;BME280_humidity;BME280_pressure;Samples;Min_cycle;Max_cycle;Signal;HPM_P1;HPM_P2
2023/12/16 00:00:44;;;;;;;609.30;574.27;;;5.70;99.90;;;;;;5010387;28;20034;-73
2023/12/16 00:03:11;;;;;;;607.53;575.40;;;5.70;99.90;;;;;;4987973;28;20586;-73
2023/12/16 00:05:36;;;;;;;594.85;562.95;;;5.60;99.90;;;;;;5010843;28;20405;-73
2023/12/16 00:08:02;;;;;;;574.33;544.07;;;5.50;99.90;;;;;;4990319;28;20099;-74
2023/12/16 00:10:28;;;;;;;565.00;536.53;;;5.50;99.90;;;;;;4993948;28;20038;-74
2023/12/16 00:12:54;;;;;;;594.50;562.37;;;5.40;99.90;;;;;;5009212;28;20806;-74
2023/12/16 00:15:19;;;;;;;594.30;562.30;;;5.40;99.90;;;;;;4991992;28;20041;-74
2023/12/16 00:17:45;;;;;;;596.40;563.23;;;5.40;99.90;;;;;;4993762;28;20129;-74
2023/12/16 00:20:11;;;;;;;533.70;505.57;;;5.30;99.90;;;;;;5010002;28;20038;-74
2023/12/16 00:22:40;;;;;;;518.27;492.47;;;5.30;99.90;;;;;;4995566;28;20034;-74
2023/12/16 00:25:09;;;;;;;527.97;501.45;;;5.30;99.90;;;;;;5010686;28;20502;-74
2023/12/16 00:27:35;;;;;;;563.45;533.50;;;5.30;99.90;;;;;;4994340;28;20049;-74
2023/12/16 00:30:02;;;;;;;638.05;600.92;;;5.30;99.90;;;;;;5013484;28;20034;-75
2023/12/16 00:32:28;;;;;;;607.00;574.97;;;5.30;99.90;;;;;;5013957;28;20093;-74
2023/12/16 00:34:53;;;;;;;625.57;591.30;;;5.20;99.90;;;;;;5013509;28;20130;-74
2023/12/16 00:37:19;;;;;;;612.43;578.93;;;5.20;99.90;;;;;;4997880;28;20450;-74
2023/12/16 00:39:45;;;;;;;614.53;580.50;;;5.20;99.90;;;;;;5003531;28;20508;-74
2023/12/16 00:42:10;;;;;;;627.97;593.50;;;5.10;99.90;;;;;;5018637;28;20034;-74
2023/12/16 00:44:36;;;;;;;607.80;576.33;;;5.10;99.90;;;;;;4996462;28;20421;-74
2023/12/16 00:47:02;;;;;;;580.20;550.73;;;5.10;99.90;;;;;;5013589;28;20183;-74
2023/12/16 00:49:28;;;;;;;691.20;652.40;;;5.10;99.90;;;;;;5014193;28;20034;-74
2023/12/16 00:51:57;;;;;;;623.05;588.63;;;5.00;99.90;;;;;;5013699;28;20149;-74
2023/12/16 00:54:24;;;;;;;572.15;542.03;;;5.00;99.90;;;;;;5014445;28;20125;-74
2023/12/16 00:56:49;;;;;;;642.38;607.08;;;5.00;99.90;;;;;;5014550;28;20494;-73
2023/12/16 00:59:16;;;;;;;598.03;565.33;;;5.00;99.90;;;;;;5018974;28;20037;-73
2023/12/16 01:01:42;;;;;;;619.33;586.25;;;5.00;99.90;;;;;;4996607;28;20165;-73
2023/12/16 01:04:09;;;;;;;593.88;560.63;;;4.90;99.90;;;;;;5013810;28;20395;-73
2023/12/16 01:06:34;;;;;;;647.70;612.65;;;4.90;99.90;;;;;;5007626;28;20116;-74
2023/12/16 01:09:00;;;;;;;594.30;562.77;;;4.90;99.90;;;;;;5013726;28;20038;-73
2023/12/16 01:11:26;;;;;;;594.47;562.90;;;4.90;99.90;;;;;;5014692;28;20041;-73
2023/12/16 01:13:52;;;;;;;609.53;577.03;;;4.90;99.90;;;;;;5012446;28;20465;-73
2023/12/16 01:16:17;;;;;;;616.40;583.50;;;4.90;99.90;;;;;;5013926;28;20042;-74
2023/12/16 01:18:43;;;;;;;553.60;524.07;;;4.90;99.90;;;;;;4992787;28;20045;-73
2023/12/16 01:21:09;;;;;;;595.47;563.60;;;4.90;99.90;;;;;;4997313;28;20037;-73
2023/12/16 01:23:36;;;;;;;616.20;582.80;;;4.90;99.90;;;;;;4996172;28;20037;-74
2023/12/16 01:26:03;;;;;;;596.33;564.50;;;4.80;99.90;;;;;;5013767;28;20042;-73
2023/12/16 01:28:30;;;;;;;659.35;622.17;;;4.80;99.90;;;;;;5014118;28;20049;-73
2023/12/16 01:30:56;;;;;;;540.22;512.80;;;4.80;99.90;;;;;;5013623;28;20046;-74
2023/12/16 01:33:22;;;;;;;571.97;542.35;;;4.70;99.90;;;;;;4996267;28;20049;-74
2023/12/16 01:35:48;;;;;;;594.42;563.03;;;4.70;99.90;;;;;;4997109;28;20038;-74
2023/12/16 01:38:13;;;;;;;596.70;563.37;;;4.70;99.90;;;;;;4994246;28;20045;-74
2023/12/16 01:40:39;;;;;;;574.37;544.00;;;4.60;99.90;;;;;;5017345;28;20276;-73
2023/12/16 01:43:06;;;;;;;596.03;564.27;;;4.60;99.90;;;;;;5000394;28;20116;-74
2023/12/16 01:45:32;;;;;;;574.78;544.78;;;4.60;99.90;;;;;;5014783;28;20814;-74
2023/12/16 01:47:59;;;;;;;581.27;550.40;;;4.50;99.90;;;;;;4997647;28;20096;-74
2023/12/16 01:50:26;;;;;;;555.25;523.80;;;4.50;99.90;;;;;;5013535;28;20383;-73
2023/12/16 01:52:53;;;;;;;549.80;521.40;;;4.50;99.90;;;;;;4996239;28;20034;-73
2023/12/16 01:55:20;;;;;;;657.13;620.33;;;4.50;99.90;;;;;;5012718;28;20052;-73
2023/12/16 01:57:46;;;;;;;641.33;605.70;;;4.50;99.90;;;;;;4997317;28;21285;-73
2023/12/16 02:00:13;;;;;;;578.58;548.13;;;4.40;99.90;;;;;;5022938;28;20036;-73
2023/12/16 02:02:39;;;;;;;656.42;618.90;;;4.40;99.90;;;;;;5016454;28;20041;-74
2023/12/16 02:05:06;;;;;;;654.03;617.72;;;4.40;99.90;;;;;;5009917;28;20037;-74
2023/12/16 02:07:32;;;;;;;665.15;628.17;;;4.50;99.90;;;;;;4995688;28;20053;-73
2023/12/16 02:09:58;;;;;;;582.03;549.67;;;4.40;99.90;;;;;;5013307;28;20037;-74
2023/12/16 02:12:26;;;;;;;573.43;542.43;;;4.40;99.90;;;;;;5012286;28;20045;-74
2023/12/16 02:14:52;;;;;;;594.22;561.65;;;4.50;99.90;;;;;;5010879;28;20046;-74
2023/12/16 02:17:18;;;;;;;591.97;558.87;;;4.50;99.90;;;;;;5012080;28;20076;-74
2023/12/16 02:19:46;;;;;;;590.20;557.67;;;4.40;99.90;;;;;;5013395;28;20050;-74
2023/12/16 02:22:11;;;;;;;685.55;646.45;;;4.50;99.90;;;;;;5009768;28;20056;-74
2023/12/16 02:24:40;;;;;;;627.17;593.50;;;4.50;99.90;;;;;;5011674;28;20042;-74
2023/12/16 02:27:05;;;;;;;643.10;605.92;;;4.50;99.90;;;;;;5012342;28;20049;-73
2023/12/16 02:29:31;;;;;;;701.43;660.57;;;4.50;99.90;;;;;;4996427;28;20050;-74
2023/12/16 02:31:57;;;;;;;598.87;566.10;;;4.50;99.90;;;;;;5011947;28;20046;-73
2023/12/16 02:34:23;;;;;;;632.50;597.13;;;4.50;99.90;;;;;;4994648;28;20505;-73
2023/12/16 02:36:49;;;;;;;645.85;607.45;;;4.50;99.90;;;;;;5011890;28;20041;-74
2023/12/16 02:39:15;;;;;;;651.73;614.07;;;4.50;99.90;;;;;;4996294;28;20081;-73
2023/12/16 02:41:41;;;;;;;609.23;574.53;;;4.50;99.90;;;;;;5010742;28;20096;-73
2023/12/16 02:44:06;;;;;;;625.17;589.53;;;4.50;99.90;;;;;;5011813;28;20044;-73
2023/12/16 02:46:32;;;;;;;618.23;584.93;;;4.50;99.90;;;;;;5010785;28;20403;-74
2023/12/16 02:48:58;;;;;;;614.70;579.83;;;4.50;99.90;;;;;;5011865;28;20128;-74
2023/12/16 02:51:23;;;;;;;652.70;615.73;;;4.50;99.90;;;;;;5012209;28;20148;-74
2023/12/16 02:53:49;;;;;;;702.20;659.43;;;4.50;99.90;;;;;;4987067;28;20038;-74
2023/12/16 02:56:15;;;;;;;656.87;619.97;;;4.50;99.90;;;;;;5022514;28;20041;-74
2023/12/16 02:58:40;;;;;;;636.33;600.13;;;4.50;99.90;;;;;;4996902;28;20061;-73
2023/12/16 03:01:06;;;;;;;639.90;602.90;;;4.50;99.90;;;;;;5016246;28;20037;-73
2023/12/16 03:03:32;;;;;;;653.83;616.90;;;4.50;99.90;;;;;;5013010;28;20038;-73
2023/12/16 03:06:04;;;;;;;652.83;615.00;;;4.50;99.90;;;;;;5028518;28;20116;-73
2023/12/16 03:08:30;;;;;;;710.78;668.70;;;4.50;99.90;;;;;;4994896;28;20418;-73
2023/12/16 03:10:56;;;;;;;637.72;601.58;;;4.50;99.90;;;;;;4998181;28;20049;-74
2023/12/16 03:13:22;;;;;;;671.93;634.47;;;4.50;99.90;;;;;;4995220;28;20049;-74
2023/12/16 03:15:48;;;;;;;665.17;627.03;;;4.50;99.90;;;;;;5011005;28;20486;-74
2023/12/16 03:18:13;;;;;;;674.73;636.53;;;4.50;99.90;;;;;;5011687;28;20107;-74
2023/12/16 03:20:39;;;;;;;677.83;637.83;;;4.50;99.90;;;;;;5010745;28;20048;-74
2023/12/16 03:23:04;;;;;;;634.33;596.27;;;4.50;99.90;;;;;;5011611;28;20498;-74
2023/12/16 03:25:30;;;;;;;607.20;574.00;;;4.60;99.90;;;;;;4994395;28;20498;-74
2023/12/16 03:27:56;;;;;;;593.83;561.63;;;4.60;99.90;;;;;;5015051;28;20036;-74
2023/12/16 03:30:21;;;;;;;629.93;594.37;;;4.60;99.90;;;;;;5009766;28;20183;-73
2023/12/16 03:32:47;;;;;;;676.77;637.53;;;4.60;99.90;;;;;;4993076;28;20057;-74
2023/12/16 03:35:13;;;;;;;596.47;563.13;;;4.60;99.90;;;;;;5008207;28;20053;-74
2023/12/16 03:37:38;;;;;;;632.17;597.93;;;4.60;99.90;;;;;;4994968;28;20038;-74
2023/12/16 03:40:05;;;;;;;636.07;599.73;;;4.60;99.90;;;;;;4994436;28;20070;-74
2023/12/16 03:42:31;;;;;;;675.15;636.70;;;4.70;99.90;;;;;;4985434;28;20045;-73
2023/12/16 03:44:56;;;;;;;618.07;583.93;;;4.70;99.90;;;;;;5009568;28;20117;-73
2023/12/16 03:47:22;;;;;;;707.03;663.87;;;4.70;99.90;;;;;;5008691;28;20037;-73
2023/12/16 03:49:48;;;;;;;771.00;715.17;;;4.80;99.90;;;;;;5005999;28;20038;-73
2023/12/16 03:52:13;;;;;;;750.53;701.90;;;4.80;99.90;;;;;;5009020;28;20041;-74
2023/12/16 03:54:40;;;;;;;680.00;640.43;;;4.90;99.90;;;;;;5006060;28;20045;-73
2023/12/16 03:57:05;;;;;;;712.90;667.83;;;4.90;99.90;;;;;;5007343;28;20096;-73
2023/12/16 03:59:31;;;;;;;700.47;658.63;;;5.00;99.90;;;;;;5010523;28;20050;-74
2023/12/16 04:01:57;;;;;;;720.70;676.67;;;5.00;99.90;;;;;;4992495;28;20029;-73
2023/12/16 04:04:22;;;;;;;752.33;705.37;;;5.00;99.90;;;;;;5008839;28;20034;-73
2023/12/16 04:06:48;;;;;;;684.30;644.60;;;5.10;99.90;;;;;;5008290;28;20049;-73
2023/12/16 04:09:14;;;;;;;718.20;675.23;;;5.00;99.90;;;;;;4993257;28;20494;-72
2023/12/16 04:11:47;;;;;;;701.97;661.03;;;5.00;99.90;;;;;;4990040;28;20290;-73
2023/12/16 04:14:13;;;;;;;713.17;670.80;;;5.00;99.90;;;;;;5009237;28;20398;-72
2023/12/16 04:16:38;;;;;;;719.90;676.20;;;5.00;99.90;;;;;;4989679;28;20030;-73
2023/12/16 04:19:05;;;;;;;728.20;684.47;;;4.90;99.90;;;;;;4993175;28;20045;-73
2023/12/16 04:21:32;;;;;;;716.42;672.97;;;4.80;99.90;;;;;;5006546;28;20034;-73
2023/12/16 04:23:58;;;;;;;765.38;717.58;;;4.80;99.90;;;;;;5008103;28;20038;-73
2023/12/16 04:26:24;;;;;;;726.92;683.40;;;4.70;99.90;;;;;;4990342;28;20073;-73
2023/12/16 04:28:49;;;;;;;711.23;667.97;;;4.60;99.90;;;;;;4989697;28;20135;-73
2023/12/16 04:31:17;;;;;;;717.70;673.77;;;4.60;99.90;;;;;;5006968;28;20147;-72
2023/12/16 04:33:43;;;;;;;714.17;671.03;;;4.60;99.90;;;;;;5005357;28;20409;-72
2023/12/16 04:36:14;;;;;;;740.70;694.85;;;4.50;99.90;;;;;;5010145;28;20033;-73
2023/12/16 04:38:39;;;;;;;764.40;716.58;;;4.50;99.90;;;;;;5008316;28;20371;-73
2023/12/16 04:41:05;;;;;;;728.27;684.33;;;4.50;99.90;;;;;;4989836;28;20100;-73
2023/12/16 04:43:31;;;;;;;750.20;703.77;;;4.50;99.90;;;;;;5005870;28;20046;-73
2023/12/16 04:45:56;;;;;;;654.67;617.07;;;4.60;99.90;;;;;;5007078;28;20137;-73
2023/12/16 04:48:22;;;;;;;650.77;613.47;;;4.60;99.90;;;;;;5004993;28;20564;-74
2023/12/16 04:50:48;;;;;;;708.77;666.10;;;4.50;99.90;;;;;;4990929;28;20425;-73
2023/12/16 04:53:13;;;;;;;696.87;655.20;;;4.50;99.90;;;;;;5008918;28;20038;-73
2023/12/16 04:55:39;;;;;;;761.20;712.90;;;4.50;99.90;;;;;;5007067;28;20100;-73
2023/12/16 04:58:05;;;;;;;748.13;701.40;;;4.50;99.90;;;;;;5007354;28;20052;-74
2023/12/16 05:00:30;;;;;;;778.07;728.00;;;4.50;99.90;;;;;;5005381;28;20442;-74
2023/12/16 05:02:56;;;;;;;742.80;697.20;;;4.50;99.90;;;;;;4993675;28;20034;-74
2023/12/16 05:05:22;;;;;;;815.83;762.87;;;4.60;99.90;;;;;;5007378;28;20414;-74
2023/12/16 05:07:48;;;;;;;770.70;722.87;;;4.60;99.90;;;;;;4992296;28;20410;-74
2023/12/16 05:10:13;;;;;;;791.53;740.77;;;4.70;99.90;;;;;;5008148;28;20064;-74
2023/12/16 05:12:40;;;;;;;777.63;729.07;;;4.70;99.90;;;;;;5005238;28;20045;-73
2023/12/16 05:15:07;;;;;;;795.50;743.13;;;4.80;99.90;;;;;;5007973;28;20100;-73
2023/12/16 05:17:33;;;;;;;803.30;751.60;;;4.90;99.90;;;;;;5010414;28;20996;-74
2023/12/16 05:19:59;;;;;;;851.00;792.03;;;4.90;99.90;;;;;;5007256;28;20066;-73
2023/12/16 05:22:24;;;;;;;820.90;765.67;;;5.00;99.90;;;;;;4992268;28;20094;-74
2023/12/16 05:24:50;;;;;;;797.10;744.37;;;5.00;99.90;;;;;;5005161;28;20045;-74
2023/12/16 05:27:16;;;;;;;843.90;785.20;;;5.10;99.90;;;;;;5008910;28;20522;-74
2023/12/16 05:29:41;;;;;;;879.50;819.40;;;5.10;99.90;;;;;;5008936;28;20406;-74
2023/12/16 05:32:07;;;;;;;798.87;748.70;;;5.20;99.90;;;;;;5009899;28;20038;-74
2023/12/16 05:34:33;;;;;;;820.30;763.80;;;5.20;99.90;;;;;;5009674;28;20045;-74
2023/12/16 05:36:58;;;;;;;877.87;815.83;;;5.20;99.90;;;;;;5008603;28;20054;-74
2023/12/16 05:39:26;;;;;;;830.70;774.30;;;5.30;99.90;;;;;;5009877;28;20442;-75
2023/12/16 05:41:52;;;;;;;871.67;811.05;;;5.30;99.90;;;;;;4986694;28;20097;-74
2023/12/16 05:44:17;;;;;;;815.20;760.37;;;5.40;99.90;;;;;;5008894;28;20034;-75
2023/12/16 05:46:43;;;;;;;822.57;767.50;;;5.40;99.90;;;;;;5012425;28;20046;-74
2023/12/16 05:49:09;;;;;;;792.27;740.10;;;5.50;99.90;;;;;;5008421;28;20046;-75
2023/12/16 05:51:39;;;;;;;909.10;839.30;;;5.50;99.90;;;;;;4993634;28;20042;-75
2023/12/16 05:54:06;;;;;;;953.85;878.38;;;5.60;99.90;;;;;;4989922;28;20043;-74
2023/12/16 05:56:31;;;;;;;911.25;847.63;;;5.70;99.90;;;;;;5007967;28;20142;-75
2023/12/16 05:58:57;;;;;;;862.93;803.40;;;5.70;99.90;;;;;;4995582;28;20461;-75
2023/12/16 06:01:23;;;;;;;909.20;842.27;;;5.80;99.90;;;;;;5012145;28;20034;-75
2023/12/16 06:03:49;;;;;;;898.53;824.80;;;5.80;99.90;;;;;;4993743;28;20134;-75
2023/12/16 06:06:15;;;;;;;931.10;859.75;;;5.90;99.90;;;;;;5006682;28;20125;-74
2023/12/16 06:08:42;;;;;;;927.30;858.75;;;5.90;99.90;;;;;;5006069;28;20041;-74
2023/12/16 06:11:14;;;;;;;918.22;851.13;;;6.00;99.90;;;;;;4991675;28;20038;-75
2023/12/16 06:13:40;;;;;;;887.55;824.60;;;6.00;99.90;;;;;;5014034;28;20049;-75
2023/12/16 06:16:10;;;;;;;892.15;827.60;;;6.00;99.90;;;;;;4992757;28;20109;-75
2023/12/16 06:18:36;;;;;;;1012.42;927.78;;;6.00;99.90;;;;;;5007241;28;20046;-74
2023/12/16 06:21:02;;;;;;;915.50;849.43;;;6.00;99.90;;;;;;5011755;28;20502;-74
2023/12/16 06:23:30;;;;;;;1032.77;943.63;;;6.00;99.90;;;;;;4991494;28;20301;-75
2023/12/16 06:25:55;;;;;;;1029.72;935.13;;;6.00;99.90;;;;;;5006667;28;20343;-75
2023/12/16 06:28:21;;;;;;;988.00;903.50;;;6.00;99.90;;;;;;4988298;28;20046;-74
2023/12/16 06:30:47;;;;;;;959.63;884.20;;;6.00;99.90;;;;;;5009426;28;20387;-74
2023/12/16 06:33:13;;;;;;;976.63;899.83;;;6.00;99.90;;;;;;5010256;28;20308;-74
2023/12/16 06:35:39;;;;;;;890.75;825.30;;;6.00;99.90;;;;;;5012630;28;20129;-74
2023/12/16 06:38:05;;;;;;;857.37;799.57;;;6.00;99.90;;;;;;4987796;28;20116;-75
2023/12/16 06:40:33;;;;;;;953.57;881.27;;;6.00;99.90;;;;;;5006828;28;20159;-74
2023/12/16 06:42:59;;;;;;;949.85;877.90;;;6.10;99.90;;;;;;5008009;28;20081;-74
2023/12/16 06:45:24;;;;;;;889.17;820.77;;;6.00;99.90;;;;;;4991138;28;20150;-75
2023/12/16 06:47:50;;;;;;;896.83;831.13;;;6.10;99.90;;;;;;5005238;28;20044;-75
2023/12/16 06:50:16;;;;;;;829.43;772.50;;;6.10;99.90;;;;;;4989497;28;20529;-74
2023/12/16 06:52:42;;;;;;;870.27;809.30;;;6.10;99.90;;;;;;4992432;28;20069;-75
2023/12/16 06:55:08;;;;;;;938.97;865.57;;;6.10;99.90;;;;;;5008730;28;20034;-74
2023/12/16 06:57:34;;;;;;;964.60;889.50;;;6.10;99.90;;;;;;5008573;28;20045;-74
2023/12/16 06:59:59;;;;;;;934.47;866.07;;;6.10;99.90;;;;;;5011287;28;20040;-75
2023/12/16 07:02:25;;;;;;;943.13;872.17;;;6.20;99.90;;;;;;5010865;28;20060;-75
2023/12/16 07:04:51;;;;;;;963.07;887.13;;;6.20;99.90;;;;;;5010167;28;20037;-74
2023/12/16 07:07:17;;;;;;;881.17;818.45;;;6.20;99.90;;;;;;5005387;28;20038;-74
2023/12/16 07:09:43;;;;;;;965.93;888.37;;;6.20;99.90;;;;;;5007419;28;20042;-75
2023/12/16 07:12:09;;;;;;;922.67;855.90;;;6.20;99.90;;;;;;5008073;28;20033;-75
2023/12/16 07:14:35;;;;;;;933.67;863.80;;;6.30;99.90;;;;;;5009142;28;20045;-75
2023/12/16 07:17:01;;;;;;;970.40;894.38;;;6.30;99.90;;;;;;4992201;28;20045;-75
2023/12/16 07:19:31;;;;;;;922.17;853.22;;;6.30;99.90;;;;;;5010456;28;20073;-75
2023/12/16 07:21:58;;;;;;;981.70;897.45;;;6.30;99.90;;;;;;5005607;28;20117;-75
2023/12/16 07:24:24;;;;;;;987.47;904.85;;;6.30;99.90;;;;;;4990565;28;20117;-74
2023/12/16 07:26:49;;;;;;;992.20;913.13;;;6.40;99.90;;;;;;5009141;28;20570;-75
2023/12/16 07:29:16;;;;;;;944.63;875.07;;;6.40;99.90;;;;;;5025051;28;20125;-73
2023/12/16 07:31:47;;;;;;;979.13;899.95;;;6.40;99.90;;;;;;5008511;28;20068;-73
2023/12/16 07:34:12;;;;;;;969.13;889.60;;;6.40;99.90;;;;;;5006158;28;20057;-73
2023/12/16 07:36:38;;;;;;;958.57;882.37;;;6.40;99.90;;;;;;5008511;28;20041;-74
2023/12/16 07:39:04;;;;;;;994.80;913.50;;;6.50;99.90;;;;;;5006986;28;20137;-74
2023/12/16 07:41:34;;;;;;;983.75;906.50;;;6.50;99.90;;;;;;5011388;28;20486;-75
2023/12/16 07:44:01;;;;;;;961.95;885.47;;;6.50;99.90;;;;;;4993772;28;20042;-73
2023/12/16 07:46:27;;;;;;;1020.78;931.10;;;6.50;99.90;;;;;;5010692;28;20042;-73
2023/12/16 07:48:53;;;;;;;834.80;778.67;;;6.50;99.90;;;;;;5006803;28;20049;-73
2023/12/16 07:51:25;;;;;;;917.17;847.03;;;6.50;99.90;;;;;;4993700;28;20045;-73
2023/12/16 07:53:51;;;;;;;944.85;869.42;;;6.50;99.90;;;;;;5011040;28;20049;-73
2023/12/16 07:56:26;;;;;;;976.63;898.53;;;6.60;99.90;;;;;;5010501;28;20040;-73
2023/12/16 07:58:52;;;;;;;945.67;870.88;;;6.60;99.90;;;;;;5012680;28;20049;-74
2023/12/16 08:01:19;;;;;;;946.33;871.27;;;6.60;99.90;;;;;;5007291;28;20026;-74
2023/12/16 08:03:46;;;;;;;1028.75;941.20;;;6.60;99.90;;;;;;5005968;28;20319;-74
2023/12/16 08:06:14;;;;;;;951.03;877.35;;;6.60;99.90;;;;;;4980163;28;20042;-73
2023/12/16 08:08:41;;;;;;;955.83;879.78;;;6.60;99.90;;;;;;5004543;28;20065;-73
2023/12/16 08:11:08;;;;;;;1008.95;926.75;;;6.60;99.90;;;;;;4991229;28;20074;-74
2023/12/16 08:13:34;;;;;;;1016.47;930.15;;;6.60;99.90;;;;;;5008437;28;20038;-74
2023/12/16 08:16:01;;;;;;;993.40;912.35;;;6.60;99.90;;;;;;5006356;28;20129;-74
2023/12/16 08:18:27;;;;;;;980.80;901.00;;;6.60;99.90;;;;;;5008899;28;20038;-75
2023/12/16 08:20:54;;;;;;;1004.88;920.55;;;6.60;99.90;;;;;;4989233;28;20157;-75
2023/12/16 08:23:20;;;;;;;994.90;908.15;;;6.60;99.90;;;;;;4991430;28;20064;-75
2023/12/16 08:25:46;;;;;;;984.47;899.53;;;6.60;99.90;;;;;;5007159;28;20050;-75
2023/12/16 08:28:12;;;;;;;1013.42;927.90;;;6.60;99.90;;;;;;5004259;28;20048;-73
2023/12/16 08:30:38;;;;;;;968.60;888.25;;;6.60;99.90;;;;;;5004671;28;20041;-73
2023/12/16 08:33:04;;;;;;;1039.63;936.50;;;6.60;99.90;;;;;;4988746;28;20038;-73
2023/12/16 08:35:29;;;;;;;965.87;889.87;;;6.70;99.90;;;;;;5007690;28;20054;-72
2023/12/16 08:37:56;;;;;;;986.33;903.90;;;6.70;99.90;;;;;;5006327;28;20064;-73
2023/12/16 08:40:22;;;;;;;1035.00;942.83;;;6.70;99.90;;;;;;5008109;28;20080;-73
2023/12/16 08:42:47;;;;;;;983.63;903.67;;;6.80;99.90;;;;;;5005506;28;21011;-72
2023/12/16 08:45:14;;;;;;;965.97;888.63;;;6.80;99.90;;;;;;5006852;28;20421;-73
2023/12/16 08:47:40;;;;;;;975.78;897.28;;;6.80;99.90;;;;;;5008600;28;20046;-73
2023/12/16 08:50:07;;;;;;;1045.73;957.40;;;6.80;99.90;;;;;;4996797;28;20033;-73
2023/12/16 08:52:33;;;;;;;1032.82;946.30;;;6.90;99.90;;;;;;5013358;28;20046;-74
2023/12/16 08:55:01;;;;;;;1048.07;958.47;;;6.90;99.90;;;;;;5010434;28;20506;-74
2023/12/16 08:57:30;;;;;;;1004.97;920.65;;;7.00;99.90;;;;;;5010784;28;20138;-73
2023/12/16 08:59:56;;;;;;;996.20;914.05;;;7.00;99.90;;;;;;5004290;28;20041;-74
2023/12/16 09:02:22;;;;;;;978.00;897.27;;;7.10;99.90;;;;;;5013720;28;20041;-73
2023/12/16 09:04:48;;;;;;;966.13;892.35;;;7.10;99.90;;;;;;5009931;28;21955;-74
2023/12/16 09:07:14;;;;;;;997.70;919.03;;;7.10;99.90;;;;;;5010079;28;20108;-74
2023/12/16 09:09:40;;;;;;;992.40;913.30;;;7.10;99.90;;;;;;5011059;28;20064;-74
2023/12/16 09:12:07;;;;;;;969.80;893.63;;;7.20;99.90;;;;;;4992799;28;20702;-75
2023/12/16 09:14:32;;;;;;;1003.00;916.75;;;7.20;99.90;;;;;;5010167;28;20482;-75
2023/12/16 09:16:59;;;;;;;962.47;887.93;;;7.20;99.90;;;;;;5027491;28;20037;-74
2023/12/16 09:19:25;;;;;;;961.45;883.67;;;7.20;99.90;;;;;;5013490;28;20095;-75
2023/12/16 09:21:50;;;;;;;964.57;889.23;;;7.30;99.90;;;;;;5013957;28;20494;-75
2023/12/16 09:24:17;;;;;;;1043.67;943.10;;;7.30;99.90;;;;;;5013359;28;20038;-75
2023/12/16 09:26:43;;;;;;;1011.72;929.50;;;7.30;99.90;;;;;;5012343;28;20383;-75
2023/12/16 09:29:11;;;;;;;1000.03;918.85;;;7.30;99.90;;;;;;5012053;28;20033;-75
2023/12/16 09:31:37;;;;;;;1008.00;926.95;;;7.30;99.90;;;;;;4997090;28;20433;-74
2023/12/16 09:34:03;;;;;;;1012.55;931.03;;;7.30;99.90;;;;;;4991029;28;20056;-75
2023/12/16 09:36:29;;;;;;;994.60;913.60;;;7.30;99.90;;;;;;4993001;28;20042;-75
2023/12/16 09:38:57;;;;;;;1005.83;923.08;;;7.30;99.90;;;;;;5010195;28;20038;-75
2023/12/16 09:41:30;;;;;;;975.33;896.25;;;7.30;99.90;;;;;;4998380;28;20045;-75
2023/12/16 09:44:00;;;;;;;1005.65;924.20;;;7.30;99.90;;;;;;5004385;28;20038;-75
2023/12/16 09:46:30;;;;;;;1037.60;945.07;;;7.40;99.90;;;;;;5010011;28;20053;-75
2023/12/16 09:48:56;;;;;;;977.23;901.63;;;7.40;99.90;;;;;;4995910;28;20283;-75
2023/12/16 09:51:23;;;;;;;980.45;900.42;;;7.40;99.90;;;;;;5012841;28;20354;-74
2023/12/16 09:53:50;;;;;;;979.60;900.10;;;7.50;99.90;;;;;;5012780;28;20041;-75
2023/12/16 09:56:17;;;;;;;1007.03;923.08;;;7.50;99.90;;;;;;4996357;28;20065;-75
2023/12/16 09:58:44;;;;;;;1697.20;999.90;;;7.60;99.90;;;;;;5012434;28;20038;-74
2023/12/16 10:01:11;;;;;;;1051.55;945.42;;;7.60;99.90;;;;;;5009183;28;20034;-74
2023/12/16 10:03:41;;;;;;;1024.15;933.58;;;7.60;99.90;;;;;;5012747;28;20049;-75
2023/12/16 10:06:08;;;;;;;1001.25;916.72;;;7.70;99.90;;;;;;5030278;28;20129;-75
2023/12/16 10:08:36;;;;;;;1424.22;978.42;;;7.70;99.90;;;;;;4996168;28;20046;-74
2023/12/16 10:11:03;;;;;;;1064.55;937.35;;;7.70;99.90;;;;;;5010539;28;20441;-75
2023/12/16 10:13:31;;;;;;;1039.60;948.10;;;7.70;99.90;;;;;;5012516;28;20100;-75
2023/12/16 10:15:57;;;;;;;1123.55;993.72;;;7.70;99.90;;;;;;4994282;28;20112;-75
2023/12/16 10:18:24;;;;;;;1092.07;985.42;;;7.80;99.90;;;;;;4996323;28;20038;-75
2023/12/16 10:20:50;;;;;;;1314.50;999.90;;;7.80;99.90;;;;;;5011698;28;20042;-75
2023/12/16 10:23:16;;;;;;;1132.27;999.90;;;7.70;99.90;;;;;;5007423;28;20100;-75
2023/12/16 10:25:42;;;;;;;1243.27;999.90;;;7.70;99.90;;;;;;5012073;28;20038;-75
2023/12/16 10:28:10;;;;;;;1428.20;999.90;;;7.70;99.90;;;;;;4995584;28;20034;-75
2023/12/16 10:30:35;;;;;;;1113.25;974.15;;;7.70;99.90;;;;;;5009328;28;20073;-75
2023/12/16 10:33:03;;;;;;;1103.77;994.73;;;7.70;99.90;;;;;;5011770;28;20077;-74
2023/12/16 10:35:30;;;;;;;945.55;875.05;;;7.70;99.90;;;;;;5010797;28;20053;-75
2023/12/16 10:37:56;;;;;;;904.70;838.40;;;7.80;99.90;;;;;;5011105;28;20045;-75
2023/12/16 10:40:26;;;;;;;1007.87;922.27;;;7.80;99.90;;;;;;5011856;28;20046;-75
2023/12/16 10:42:53;;;;;;;1112.17;998.00;;;7.80;99.90;;;;;;4993462;28;20041;-75
2023/12/16 10:45:19;;;;;;;1200.32;999.90;;;7.80;99.90;;;;;;4995463;28;20857;-75
2023/12/16 10:47:48;;;;;;;1022.70;933.30;;;7.80;99.90;;;;;;5011425;28;20113;-74
2023/12/16 10:50:15;;;;;;;1020.95;931.88;;;7.80;99.90;;;;;;5006715;28;20085;-74
2023/12/16 10:52:52;;;;;;;1104.57;993.70;;;7.70;99.90;;;;;;5010936;28;20129;-75
2023/12/16 10:55:27;;;;;;;1059.23;956.40;;;7.70;99.90;;;;;;4992575;28;20304;-75
2023/12/16 10:57:53;;;;;;;;;;;7.70;99.90;;;;;;5006713;28;20299;-75
2023/12/16 11:00:30;;;;;;;1079.00;970.63;;;7.70;99.90;;;;;;4994657;28;19917;-75
2023/12/16 11:03:07;;;;;;;1079.25;964.03;;;7.70;99.90;;;;;;5011036;28;20053;-75
2023/12/16 11:05:41;;;;;;;1126.10;958.47;;;7.70;99.90;;;;;;4994840;28;20451;-75
2023/12/16 11:08:08;;;;;;;1011.15;925.80;;;7.70;99.90;;;;;;4995567;28;20049;-75
2023/12/16 11:10:33;;;;;;;1016.47;931.00;;;7.70;99.90;;;;;;4992529;28;20045;-76
2023/12/16 11:13:02;;;;;;;1096.17;988.33;;;7.70;99.90;;;;;;5007485;28;20539;-76
2023/12/16 11:15:31;;;;;;;1039.47;935.42;;;7.80;99.90;;;;;;4978171;28;20049;-75
2023/12/16 11:18:00;;;;;;;1067.43;956.47;;;7.80;99.90;;;;;;5010235;28;20033;-76
2023/12/16 11:20:36;;;;;;;1061.78;963.22;;;7.80;99.90;;;;;;4994907;28;20394;-75
2023/12/16 11:23:03;;;;;;;1231.00;999.90;;;7.90;99.90;;;;;;5009175;28;20576;-76
2023/12/16 11:25:33;;;;;;;1248.47;999.90;;;7.90;99.90;;;;;;4994193;28;20053;-76
2023/12/16 11:28:00;;;;;;;1085.10;975.25;;;7.90;99.90;;;;;;5011131;28;20050;-76
2023/12/16 11:30:29;;;;;;;1071.57;973.63;;;7.90;99.90;;;;;;4994194;28;20072;-76
2023/12/16 11:32:57;;;;;;;1045.50;953.83;;;7.90;99.90;;;;;;5010421;28;20537;-75
2023/12/16 11:35:47;;;;;;;1376.13;999.90;;;7.90;99.90;;;;;;4994615;28;20092;-76
2023/12/16 11:38:38;;;;;;;1155.28;999.90;;;7.90;99.90;;;;;;4992569;28;20041;-76
2023/12/16 11:41:04;;;;;;;1177.70;999.90;;;7.90;99.90;;;;;;5006610;28;20049;-75
2023/12/16 11:43:50;;;;;;;1574.10;999.90;;;8.00;99.90;;;;;;5009956;28;20040;-76
2023/12/16 11:46:38;;;;;;;1145.22;999.90;;;8.00;99.90;;;;;;4997884;28;20042;-76
2023/12/16 11:49:07;;;;;;;1259.68;999.90;;;8.00;99.90;;;;;;4993902;28;20042;-76
2023/12/16 11:51:34;;;;;;;1384.55;999.90;;;8.00;99.90;;;;;;5011186;28;20030;-76
2023/12/16 11:54:01;;;;;;;1016.85;924.20;;;8.10;99.90;;;;;;5010829;28;20038;-76
2023/12/16 11:56:27;;;;;;;1120.05;997.25;;;8.10;99.90;;;;;;4994407;28;20065;-76
2023/12/16 11:58:57;;;;;;;1700.30;999.90;;;8.10;99.90;;;;;;4994393;28;20083;-76
2023/12/16 12:01:27;;;;;;;1991.05;999.90;;;8.10;99.90;;;;;;5009252;28;20046;-77
2023/12/16 12:03:54;;;;;;;1081.65;975.88;;;8.20;99.90;;;;;;5007754;28;20042;-76
2023/12/16 12:06:20;;;;;;;1275.88;999.90;;;8.20;99.90;;;;;;4994698;28;20131;-76
2023/12/16 12:08:46;;;;;;;1079.60;974.53;;;8.20;99.90;;;;;;5010351;28;20053;-76
2023/12/16 12:11:16;;;;;;;1087.60;975.33;;;8.20;99.90;;;;;;5010905;28;20038;-76
2023/12/16 12:13:43;;;;;;;1044.35;951.15;;;8.20;99.90;;;;;;5006394;28;20048;-76